Time;durP1;ratioP1;P1;durP2;ratioP2;P2;SDS_P1;SDS_P2;PMS_P1;PMS_P2;Temp;Humidity;BMP_temperature;BMP_pressure;BME280_temperature;BME280_humidity;BME280_pressure;Samples;Min_cycle;Max_cycle;Signal;HPM_P1;HPM_P2
2021/11/08 00:01:27;;;;;;;0.00;0.00;;;11.20;81.50;;;;;;5034968;28;20388;-94
2021/11/08 00:03:53;;;;;;;0.00;0.00;;;11.20;81.60;;;;;;5035271;28;20473;-93
2021/11/08 00:06:19;;;;;;;0.00;0.00;;;11.20;81.60;;;;;;5035556;28;20032;-94
2021/11/08 00:08:46;;;;;;;0.00;0.00;;;11.20;82.30;;;;;;5035338;28;20480;-94
2021/11/08 00:11:13;;;;;;;0.00;0.00;;;11.20;81.70;;;;;;5035408;28;20417;-94
2021/11/08 00:13:38;;;;;;;0.00;0.00;;;11.20;81.70;;;;;;5034863;28;20036;-93
2021/11/08 00:21:03;;;;;;;0.00;0.00;;;11.20;81.90;;;;;;5035311;28;20033;-94
2021/11/08 00:23:30;;;;;;;0.00;0.00;;;11.20;82.00;;;;;;5035075;28;20040;-93
2021/11/08 00:25:57;;;;;;;0.00;0.00;;;11.20;82.00;;;;;;5034471;28;20025;-94
2021/11/08 00:28:24;;;;;;;0.00;0.00;;;11.20;82.00;;;;;;5034567;28;20467;-93
2021/11/08 00:30:52;;;;;;;0.00;0.00;;;11.20;81.90;;;;;;5034814;28;20074;-94
2021/11/08 00:33:19;;;;;;;0.00;0.00;;;11.20;81.90;;;;;;5034828;28;20369;-94
2021/11/08 00:35:50;;;;;;;0.00;0.00;;;11.20;82.00;;;;;;5033562;28;20487;-94
2021/11/08 00:38:17;;;;;;;0.00;0.00;;;11.20;82.20;;;;;;5050487;28;20099;-93
2021/11/08 00:40:43;;;;;;;0.00;0.00;;;11.20;82.30;;;;;;5034815;28;20438;-94
2021/11/08 00:43:10;;;;;;;0.00;0.00;;;11.20;82.40;;;;;;5034595;28;20022;-95
2021/11/08 00:45:36;;;;;;;0.00;0.00;;;11.20;82.40;;;;;;5034453;28;20022;-94
2021/11/08 00:48:03;;;;;;;0.00;0.00;;;11.20;82.50;;;;;;5047647;28;20060;-95
2021/11/08 00:50:29;;;;;;;0.00;0.00;;;11.20;82.60;;;;;;5070234;28;20120;-94
2021/11/08 00:52:55;;;;;;;0.00;0.00;;;11.20;82.60;;;;;;5054375;28;20033;-94
2021/11/08 00:55:23;;;;;;;0.00;0.00;;;11.20;82.60;;;;;;5054389;28;20423;-94
2021/11/08 00:57:50;;;;;;;0.00;0.00;;;11.20;82.60;;;;;;5035029;28;20022;-95
2021/11/08 01:00:20;;;;;;;0.00;0.00;;;11.20;82.70;;;;;;5034389;28;20068;-94
2021/11/08 01:02:46;;;;;;;0.00;0.00;;;11.20;82.70;;;;;;5034680;28;20029;-93
2021/11/08 01:05:15;;;;;;;0.00;0.00;;;11.20;82.80;;;;;;5034149;28;20021;-92
2021/11/08 01:07:41;;;;;;;0.00;0.00;;;11.20;82.90;;;;;;5034208;28;20032;-93
2021/11/08 01:10:09;;;;;;;0.00;0.00;;;11.20;83.00;;;;;;5034229;28;20104;-94
2021/11/08 01:12:35;;;;;;;0.00;0.00;;;11.10;83.20;;;;;;5049578;28;20493;-93
2021/11/08 01:15:01;;;;;;;0.00;0.00;;;11.10;83.30;;;;;;5032748;28;20021;-95
2021/11/08 01:17:27;;;;;;;0.00;0.00;;;11.10;83.30;;;;;;5033800;28;20030;-93
2021/11/08 01:19:53;;;;;;;0.00;0.00;;;11.10;83.40;;;;;;5034370;28;20469;-94
2021/11/08 01:22:21;;;;;;;0.00;0.00;;;11.10;83.50;;;;;;5034023;28;20108;-94
2021/11/08 01:24:56;;;;;;;0.00;0.00;;;11.10;83.50;;;;;;5033818;28;20032;-94
2021/11/08 01:27:36;;;;;;;0.00;0.00;;;11.10;83.60;;;;;;5049257;28;20105;-95
2021/11/08 01:30:28;;;;;;;0.00;0.00;;;11.10;83.60;;;;;;5049349;28;20033;-95
2021/11/08 01:33:02;;;;;;;0.00;0.00;;;11.10;83.60;;;;;;5034015;28;20052;-95
2021/11/08 01:35:39;;;;;;;;;;;11.10;83.60;;;;;;5034261;28;20492;-95
2021/11/08 01:38:12;;;;;;;0.00;0.00;;;11.00;83.40;;;;;;5033903;28;19951;-94
2021/11/08 01:40:41;;;;;;;0.00;0.00;;;11.00;83.40;;;;;;5033690;28;20029;-94
2021/11/08 01:43:08;;;;;;;0.00;0.00;;;10.90;83.80;;;;;;5033777;28;20106;-95
2021/11/08 01:45:35;;;;;;;0.00;0.00;;;10.90;84.30;;;;;;5033796;28;20109;-94
2021/11/08 01:48:01;;;;;;;0.00;0.00;;;10.90;84.60;;;;;;5033613;28;20022;-93
2021/11/08 01:50:27;;;;;;;0.00;0.00;;;10.90;84.70;;;;;;5033828;28;20088;-94
2021/11/08 01:52:53;;;;;;;0.00;0.00;;;10.90;84.80;;;;;;5033739;28;20033;-94
2021/11/08 01:55:26;;;;;;;0.00;0.00;;;10.90;84.80;;;;;;5033314;28;20384;-94
2021/11/08 01:57:52;;;;;;;0.00;0.00;;;10.90;84.80;;;;;;5033663;28;20022;-92
2021/11/08 02:00:19;;;;;;;0.00;0.00;;;10.90;84.70;;;;;;5033225;28;20037;-95
2021/11/08 02:02:45;;;;;;;0.00;0.00;;;10.80;84.70;;;;;;5033665;28;20060;-94
2021/11/08 02:05:11;;;;;;;0.00;0.00;;;10.80;84.80;;;;;;5033454;28;20469;-94
2021/11/08 02:07:41;;;;;;;0.00;0.00;;;10.70;84.90;;;;;;5033394;28;20044;-94
2021/11/08 02:10:10;;;;;;;0.00;0.00;;;10.70;85.10;;;;;;5033363;28;20484;-94
2021/11/08 02:12:36;;;;;;;0.00;0.00;;;10.70;85.30;;;;;;5033306;28;20465;-94
2021/11/08 02:15:05;;;;;;;0.00;0.00;;;10.60;85.40;;;;;;5033437;28;20036;-93
2021/11/08 02:17:31;;;;;;;0.00;0.00;;;10.60;85.60;;;;;;5033531;28;20033;-94
2021/11/08 02:20:15;;;;;;;0.00;0.00;;;10.50;85.80;;;;;;5033266;28;20029;-94
2021/11/08 02:22:43;;;;;;;0.00;0.00;;;10.50;86.00;;;;;;5033611;28;20032;-93
2021/11/08 02:25:10;;;;;;;0.05;0.00;;;10.50;86.20;;;;;;5037183;28;20084;-94
2021/11/08 02:27:41;;;;;;;0.00;0.00;;;10.50;86.40;;;;;;5037216;28;20041;-94
2021/11/08 02:30:08;;;;;;;0.00;0.00;;;10.50;86.50;;;;;;5037249;28;20030;-94
2021/11/08 02:32:33;;;;;;;0.00;0.00;;;10.50;86.70;;;;;;5037018;28;20025;-94
2021/11/08 02:35:01;;;;;;;0.00;0.00;;;10.40;86.70;;;;;;5037118;28;20120;-93
2021/11/08 02:37:27;;;;;;;0.00;0.00;;;10.40;86.70;;;;;;5052348;28;20393;-94
2021/11/08 02:39:54;;;;;;;0.00;0.00;;;10.40;86.90;;;;;;5036480;28;20045;-94
2021/11/08 02:42:20;;;;;;;0.00;0.00;;;10.40;86.90;;;;;;5052173;28;20033;-95
2021/11/08 02:44:46;;;;;;;0.00;0.00;;;10.40;87.20;;;;;;5037169;28;20022;-94
2021/11/08 02:47:13;;;;;;;0.00;0.00;;;10.40;87.40;;;;;;5036847;28;20030;-93
2021/11/08 02:49:43;;;;;;;0.00;0.00;;;10.40;87.30;;;;;;5036899;28;20386;-94
2021/11/08 02:52:10;;;;;;;0.00;0.00;;;10.40;87.60;;;;;;5036605;28;20018;-94
2021/11/08 02:54:41;;;;;;;0.00;0.00;;;10.40;87.70;;;;;;5037137;28;20108;-94
2021/11/08 02:57:08;;;;;;;0.00;0.00;;;10.40;87.80;;;;;;5036419;28;20029;-94
2021/11/08 02:59:37;;;;;;;0.00;0.00;;;10.50;88.30;;;;;;5036047;28;20420;-94
2021/11/08 03:02:04;;;;;;;0.00;0.00;;;10.50;88.30;;;;;;5051799;28;20029;-93
2021/11/08 03:04:34;;;;;;;0.00;0.00;;;10.60;88.50;;;;;;5036375;28;20438;-93
2021/11/08 03:07:00;;;;;;;0.00;0.00;;;10.60;88.30;;;;;;5036550;28;20021;-93
2021/11/08 03:09:34;;;;;;;0.00;0.00;;;10.60;88.00;;;;;;5036319;28;20026;-94
2021/11/08 03:12:08;;;;;;;0.00;0.00;;;10.70;88.00;;;;;;5052058;28;20068;-93
2021/11/08 03:14:37;;;;;;;0.00;0.00;;;10.70;88.70;;;;;;5036193;28;20025;-94
2021/11/08 03:17:04;;;;;;;0.00;0.00;;;10.70;88.30;;;;;;5036455;28;20068;-94
2021/11/08 03:21:58;;;;;;;0.00;0.00;;;10.70;88.20;;;;;;5036325;28;20033;-93
2021/11/08 03:29:45;;;;;;;0.00;0.00;;;10.90;88.10;;;;;;5036218;28;20029;-94
2021/11/08 03:32:15;;;;;;;0.00;0.00;;;11.00;88.20;;;;;;5051386;28;20030;-93
2021/11/08 03:34:47;;;;;;;0.00;0.00;;;11.00;88.10;;;;;;5034841;28;20025;-94
2021/11/08 03:37:13;;;;;;;0.00;0.00;;;11.00;87.80;;;;;;5035962;28;20420;-93
2021/11/08 03:39:39;;;;;;;0.00;0.00;;;11.10;87.70;;;;;;5050885;28;20053;-94
2021/11/08 03:42:05;;;;;;;0.00;0.00;;;11.10;87.40;;;;;;5036172;28;20369;-94
2021/11/08 03:44:31;;;;;;;0.00;0.00;;;11.10;87.30;;;;;;5035456;28;20030;-93
2021/11/08 03:46:57;;;;;;;0.00;0.00;;;11.20;87.20;;;;;;5035525;28;20079;-95
2021/11/08 03:49:23;;;;;;;0.00;0.00;;;11.20;87.10;;;;;;5035425;28;20083;-95
2021/11/08 03:51:49;;;;;;;0.00;0.00;;;11.20;87.10;;;;;;5035736;28;20026;-94
2021/11/08 03:54:15;;;;;;;0.00;0.00;;;11.20;86.90;;;;;;5035594;28;20036;-94
2021/11/08 03:56:40;;;;;;;0.00;0.00;;;11.30;87.00;;;;;;5035617;28;20454;-94
2021/11/08 03:59:06;;;;;;;0.00;0.00;;;11.30;86.80;;;;;;5035512;28;20105;-94
2021/11/08 04:01:35;;;;;;;0.00;0.00;;;11.20;86.60;;;;;;5036065;28;20037;-92
2021/11/08 04:04:05;;;;;;;0.00;0.00;;;11.30;86.50;;;;;;5035501;28;20025;-95
2021/11/08 04:06:33;;;;;;;0.00;0.00;;;11.30;86.40;;;;;;5035372;28;20021;-94
2021/11/08 04:08:59;;;;;;;0.00;0.00;;;11.30;86.40;;;;;;5035915;28;20095;-93
2021/11/08 04:11:29;;;;;;;0.00;0.00;;;11.30;86.30;;;;;;5035292;28;20026;-95
2021/11/08 04:13:58;;;;;;;0.00;0.00;;;11.30;86.10;;;;;;5035098;28;20025;-94
2021/11/08 04:16:27;;;;;;;0.00;0.00;;;11.30;86.10;;;;;;5035543;28;20428;-94
2021/11/08 04:18:56;;;;;;;0.00;0.00;;;11.30;86.10;;;;;;5035641;28;20049;-95
2021/11/08 04:21:22;;;;;;;0.00;0.00;;;11.30;86.20;;;;;;5034722;28;20117;-94
2021/11/08 04:23:48;;;;;;;0.00;0.00;;;11.30;86.00;;;;;;5035467;28;20133;-94
2021/11/08 04:26:19;;;;;;;0.10;0.10;;;11.30;85.90;;;;;;5050625;28;20373;-94
2021/11/08 04:28:59;;;;;;;0.00;0.00;;;11.30;85.90;;;;;;5035359;28;20048;-93
2021/11/08 04:31:25;;;;;;;0.00;0.00;;;11.30;85.80;;;;;;5034967;28;20083;-95
2021/11/08 04:33:54;;;;;;;0.00;0.00;;;11.30;85.70;;;;;;5036044;28;20033;-94
2021/11/08 04:41:29;;;;;;;0.00;0.00;;;11.20;85.30;;;;;;5035670;28;20056;-92
2021/11/08 04:51:41;;;;;;;0.00;0.00;;;11.10;85.40;;;;;;5034805;28;20041;-93
2021/11/08 05:30:11;;;;;;;0.00;0.00;;;10.70;86.50;;;;;;5034241;28;20144;-93
2021/11/08 05:32:40;;;;;;;0.00;0.00;;;10.70;86.60;;;;;;5036311;28;20432;-93
2021/11/08 05:35:09;;;;;;;0.00;0.00;;;10.60;86.40;;;;;;5035323;28;20052;-93
2021/11/08 05:37:35;;;;;;;0.00;0.00;;;10.70;86.50;;;;;;5036705;28;20413;-93
2021/11/08 05:40:13;;;;;;;0.00;0.00;;;10.60;86.50;;;;;;5038907;28;20045;-93
2021/11/08 05:42:39;;;;;;;0.00;0.00;;;10.70;86.50;;;;;;5041766;28;20040;-93
2021/11/08 05:45:09;;;;;;;0.00;0.00;;;10.70;86.40;;;;;;5041980;28;20034;-94
2021/11/08 05:47:35;;;;;;;0.00;0.00;;;10.70;86.30;;;;;;5052634;28;20049;-94
2021/11/08 05:50:01;;;;;;;0.00;0.00;;;10.80;86.20;;;;;;5035142;28;20436;-93
2021/11/08 05:52:27;;;;;;;0.00;0.00;;;10.80;86.00;;;;;;5033909;28;20104;-94
2021/11/08 05:54:53;;;;;;;0.00;0.00;;;10.80;85.80;;;;;;5034767;28;20477;-94
2021/11/08 06:00:44;;;;;;;0.00;0.00;;;10.90;85.40;;;;;;5029382;28;20408;-93
2021/11/08 06:49:44;;;;;;;0.00;0.00;;;11.30;81.20;;;;;;5033156;28;20257;-93
2021/11/08 06:52:13;;;;;;;0.00;0.00;;;11.30;80.80;;;;;;5025040;28;20026;-94
2021/11/08 06:54:40;;;;;;;0.00;0.00;;;11.40;81.00;;;;;;5022471;28;20097;-93
2021/11/08 06:57:14;;;;;;;0.00;0.00;;;11.40;80.60;;;;;;5028632;28;20067;-94
2021/11/08 06:59:41;;;;;;;0.00;0.00;;;11.40;80.40;;;;;;5039366;28;20033;-93
2021/11/08 07:02:08;;;;;;;0.00;0.00;;;11.40;80.30;;;;;;5033133;28;20054;-94
2021/11/08 07:04:34;;;;;;;0.00;0.00;;;11.40;80.10;;;;;;5032807;28;20021;-93
2021/11/08 07:07:00;;;;;;;0.00;0.00;;;11.40;79.70;;;;;;5030183;28;20109;-93
2021/11/08 07:09:26;;;;;;;0.00;0.00;;;11.50;79.90;;;;;;5049408;28;20076;-94
2021/11/08 07:11:52;;;;;;;0.00;0.00;;;11.60;79.70;;;;;;5030128;28;20029;-94
2021/11/08 07:14:17;;;;;;;0.00;0.00;;;11.80;79.40;;;;;;5027391;28;20101;-94
2021/11/08 07:16:44;;;;;;;0.00;0.00;;;12.00;78.90;;;;;;5016820;28;20386;-93
2021/11/08 07:19:12;;;;;;;0.00;0.00;;;12.10;78.20;;;;;;5032026;28;20025;-93
2021/11/08 07:21:38;;;;;;;0.00;0.00;;;12.10;77.20;;;;;;5016479;28;20040;-94
2021/11/08 07:24:04;;;;;;;0.00;0.00;;;12.00;76.50;;;;;;5035236;28;20051;-94
2021/11/08 07:26:29;;;;;;;0.00;0.00;;;12.00;76.80;;;;;;5032412;28;20458;-92
2021/11/08 07:28:56;;;;;;;0.00;0.00;;;12.20;76.70;;;;;;5017466;28;20057;-92
2021/11/08 07:31:21;;;;;;;0.00;0.00;;;12.30;76.30;;;;;;5022924;28;20029;-94
2021/11/08 07:33:47;;;;;;;0.00;0.00;;;12.50;75.80;;;;;;5025078;28;20422;-91
2021/11/08 07:36:13;;;;;;;0.08;0.08;;;12.80;75.60;;;;;;5025492;28;20021;-94
2021/11/08 07:38:39;;;;;;;0.00;0.00;;;13.10;75.30;;;;;;5046987;28;20057;-92
2021/11/08 07:41:11;;;;;;;0.00;0.00;;;13.60;74.40;;;;;;5047015;28;20037;-93
2021/11/08 07:43:38;;;;;;;0.00;0.00;;;13.90;73.40;;;;;;5047903;28;20022;-93
2021/11/08 07:46:04;;;;;;;0.00;0.00;;;14.40;72.90;;;;;;5026195;28;20026;-93
2021/11/08 07:48:30;;;;;;;0.00;0.00;;;14.90;72.40;;;;;;5025356;28;20373;-94
2021/11/08 07:50:55;;;;;;;0.00;0.00;;;15.50;70.90;;;;;;5023447;28;20473;-92
2021/11/08 07:53:21;;;;;;;0.00;0.00;;;15.80;68.50;;;;;;5025968;28;20021;-93
2021/11/08 07:55:47;;;;;;;0.00;0.00;;;15.90;67.40;;;;;;5024019;28;20022;-94
2021/11/08 07:58:15;;;;;;;0.00;0.00;;;16.30;66.30;;;;;;5025245;28;20021;-94
2021/11/08 08:00:42;;;;;;;0.00;0.00;;;16.80;65.10;;;;;;5025992;28;20116;-94
2021/11/08 08:03:08;;;;;;;0.00;0.00;;;17.50;63.60;;;;;;5024426;28;20458;-92
2021/11/08 08:05:35;;;;;;;0.00;0.00;;;18.10;61.90;;;;;;5024389;28;20053;-95
2021/11/08 08:08:01;;;;;;;0.00;0.00;;;18.70;59.90;;;;;;5025628;28;20101;-93
2021/11/08 08:10:26;;;;;;;0.00;0.00;;;19.20;58.20;;;;;;5023521;28;20030;-94
2021/11/08 08:12:53;;;;;;;0.00;0.00;;;19.80;56.50;;;;;;5024739;28;20030;-93
2021/11/08 08:15:19;;;;;;;0.00;0.00;;;20.20;53.70;;;;;;5025606;28;20105;-93
2021/11/08 08:17:45;;;;;;;0.00;0.00;;;20.40;52.70;;;;;;5026061;28;20018;-94
2021/11/08 08:20:17;;;;;;;0.00;0.00;;;20.70;51.60;;;;;;5022543;28;20037;-95
2021/11/08 08:22:43;;;;;;;0.00;0.00;;;20.80;50.10;;;;;;5025145;28;20028;-94
2021/11/08 08:25:10;;;;;;;0.00;0.00;;;20.90;49.80;;;;;;5023917;28;20022;-94
2021/11/08 08:27:37;;;;;;;0.00;0.00;;;20.80;49.70;;;;;;5023998;28;20021;-94
2021/11/08 08:30:04;;;;;;;0.00;0.00;;;20.60;49.10;;;;;;5032034;28;20033;-96
2021/11/08 08:32:30;;;;;;;0.00;0.00;;;20.60;49.00;;;;;;5023967;28;20061;-92
2021/11/08 08:34:56;;;;;;;0.00;0.00;;;20.80;48.70;;;;;;5022364;28;20550;-94
2021/11/08 08:37:22;;;;;;;0.00;0.00;;;21.10;48.60;;;;;;5025119;28;20528;-93
2021/11/08 08:39:49;;;;;;;0.00;0.00;;;21.30;47.80;;;;;;5023908;28;20113;-92
2021/11/08 08:42:15;;;;;;;0.00;0.00;;;21.30;47.10;;;;;;5023922;28;20516;-94
2021/11/08 08:44:41;;;;;;;0.00;0.00;;;21.30;47.00;;;;;;5026194;28;20144;-93
2021/11/08 08:47:07;;;;;;;0.00;0.00;;;21.10;46.60;;;;;;5024008;28;20100;-93
2021/11/08 08:49:32;;;;;;;0.00;0.00;;;20.50;46.80;;;;;;5024447;28;20040;-93
2021/11/08 08:51:58;;;;;;;0.00;0.00;;;19.80;47.40;;;;;;5024661;28;20036;-93
2021/11/08 08:54:24;;;;;;;0.00;0.00;;;19.20;48.50;;;;;;5022550;28;20022;-94
2021/11/08 08:56:53;;;;;;;0.00;0.00;;;19.50;49.10;;;;;;5024795;28;20025;-93
2021/11/08 08:59:20;;;;;;;0.00;0.00;;;20.00;49.00;;;;;;5024870;28;20026;-94
2021/11/08 09:01:46;;;;;;;0.00;0.00;;;20.30;48.00;;;;;;5024899;28;20527;-93
2021/11/08 09:04:12;;;;;;;0.00;0.00;;;20.70;47.30;;;;;;5023736;28;20030;-94
2021/11/08 09:06:38;;;;;;;0.00;0.00;;;20.60;46.50;;;;;;5021842;28;20056;-90
2021/11/08 09:09:04;;;;;;;0.00;0.00;;;20.00;46.90;;;;;;5024738;28;20025;-92
2021/11/08 09:11:31;;;;;;;0.00;0.00;;;19.50;48.10;;;;;;5027205;28;20421;-93
2021/11/08 09:14:00;;;;;;;0.00;0.00;;;19.40;48.50;;;;;;5028694;28;20056;-93
2021/11/08 09:16:31;;;;;;;0.00;0.00;;;19.40;48.80;;;;;;5026983;28;20018;-93
2021/11/08 09:18:57;;;;;;;0.00;0.00;;;19.40;48.70;;;;;;5024234;28;20032;-93
2021/11/08 09:21:24;;;;;;;0.00;0.00;;;19.20;48.60;;;;;;5021444;28;20105;-93
2021/11/08 09:23:52;;;;;;;0.00;0.00;;;18.80;48.90;;;;;;5015258;28;20116;-93
2021/11/08 09:26:19;;;;;;;0.00;0.00;;;18.30;49.40;;;;;;5014685;28;20030;-92
2021/11/08 09:28:46;;;;;;;0.00;0.00;;;18.00;50.20;;;;;;5014942;28;20021;-93
2021/11/08 09:31:12;;;;;;;0.00;0.00;;;18.10;50.70;;;;;;5015811;28;20041;-92
2021/11/08 09:33:38;;;;;;;0.00;0.00;;;18.30;51.10;;;;;;5032643;28;20034;-93
2021/11/08 09:36:08;;;;;;;0.00;0.00;;;18.80;50.50;;;;;;5033152;28;20028;-93
2021/11/08 09:38:39;;;;;;;0.00;0.00;;;19.30;49.70;;;;;;5034809;28;20052;-93
2021/11/08 09:41:10;;;;;;;0.00;0.00;;;19.50;48.60;;;;;;5035106;28;20116;-93
2021/11/08 09:43:39;;;;;;;0.00;0.00;;;19.50;48.40;;;;;;5030736;28;20826;-92
2021/11/08 09:46:05;;;;;;;0.00;0.00;;;19.50;48.30;;;;;;5015056;28;20381;-93
2021/11/08 09:48:36;;;;;;;0.00;0.00;;;19.60;48.30;;;;;;5016460;28;20029;-92
2021/11/08 09:51:01;;;;;;;0.00;0.00;;;19.20;48.70;;;;;;5018618;28;20036;-95
2021/11/08 09:53:27;;;;;;;0.00;0.00;;;19.00;49.00;;;;;;5024345;28;20386;-95
2021/11/08 09:55:53;;;;;;;0.00;0.00;;;19.50;49.20;;;;;;5036280;28;20087;-95
2021/11/08 09:58:19;;;;;;;0.00;0.00;;;19.70;48.60;;;;;;5034871;28;20030;-94
2021/11/08 10:00:54;;;;;;;0.00;0.00;;;19.60;48.20;;;;;;5030360;28;20030;-91
2021/11/08 10:03:31;;;;;;;0.00;0.00;;;19.50;48.50;;;;;;5024764;28;20030;-93
2021/11/08 10:05:58;;;;;;;0.00;0.00;;;19.60;48.50;;;;;;5023822;28;20057;-94
2021/11/08 10:08:30;;;;;;;0.00;0.00;;;20.00;48.50;;;;;;5024125;28;20030;-91
2021/11/08 10:10:57;;;;;;;0.00;0.00;;;20.50;47.70;;;;;;5024122;28;20033;-92
2021/11/08 10:13:26;;;;;;;0.00;0.00;;;21.30;46.50;;;;;;5023847;28;20024;-93
2021/11/08 10:15:57;;;;;;;0.00;0.00;;;21.30;45.40;;;;;;5024963;28;20373;-93
2021/11/08 10:18:23;;;;;;;0.00;0.00;;;21.10;45.70;;;;;;5034347;28;20057;-93
2021/11/08 10:20:53;;;;;;;0.00;0.00;;;21.60;45.10;;;;;;5019439;28;20030;-94
2021/11/08 10:23:24;;;;;;;0.00;0.00;;;22.20;44.00;;;;;;5014668;28;20033;-94
2021/11/08 10:25:50;;;;;;;0.00;0.00;;;22.50;42.70;;;;;;5014193;28;20038;-92
2021/11/08 10:28:20;;;;;;;0.00;0.00;;;22.70;42.70;;;;;;5014400;28;20446;-93
2021/11/08 10:30:48;;;;;;;0.00;0.00;;;23.20;42.70;;;;;;5013434;28;20034;-93
2021/11/08 10:33:30;;;;;;;0.00;0.00;;;24.00;41.90;;;;;;5014132;28;20022;-93
2021/11/08 10:36:00;;;;;;;0.00;0.00;;;24.40;40.70;;;;;;5014312;28;20477;-93
2021/11/08 10:38:32;;;;;;;0.00;0.00;;;24.10;40.10;;;;;;5014294;28;20046;-95
2021/11/08 10:41:02;;;;;;;0.00;0.00;;;23.20;40.20;;;;;;5014336;28;20029;-93
2021/11/08 10:43:34;;;;;;;0.00;0.00;;;22.40;41.20;;;;;;5029070;28;20030;-92
2021/11/08 10:46:22;;;;;;;0.00;0.00;;;21.70;42.00;;;;;;5019491;28;20018;-92
2021/11/08 10:48:59;;;;;;;0.00;0.00;;;20.90;43.40;;;;;;5017214;28;20382;-92
2021/11/08 10:51:28;;;;;;;0.00;0.00;;;20.30;44.20;;;;;;5020059;28;20034;-92
2021/11/08 10:54:00;;;;;;;0.00;0.00;;;19.40;45.20;;;;;;5019424;28;20025;-94
2021/11/08 10:56:34;;;;;;;0.00;0.00;;;18.70;46.40;;;;;;5019284;28;20098;-92
2021/11/08 10:59:03;;;;;;;0.00;0.00;;;18.10;47.50;;;;;;5017745;28;20355;-94
2021/11/08 11:01:30;;;;;;;0.00;0.00;;;17.60;48.40;;;;;;5017107;28;20041;-93
2021/11/08 11:03:58;;;;;;;0.00;0.00;;;17.10;49.30;;;;;;5037976;28;20037;-92
2021/11/08 11:06:44;;;;;;;0.00;0.00;;;16.90;50.40;;;;;;5024292;28;20030;-94
2021/11/08 11:09:17;;;;;;;0.00;0.00;;;17.20;50.90;;;;;;5028675;28;20469;-93
2021/11/08 11:11:44;;;;;;;0.00;0.00;;;17.70;50.40;;;;;;5035336;28;20090;-94
2021/11/08 11:14:10;;;;;;;0.00;0.00;;;18.50;49.60;;;;;;5037423;28;20021;-93
2021/11/08 11:16:36;;;;;;;0.00;0.00;;;18.60;48.50;;;;;;5036746;28;20033;-93
2021/11/08 11:19:08;;;;;;;0.00;0.00;;;18.30;48.60;;;;;;5036756;28;20380;-92
2021/11/08 11:21:36;;;;;;;0.00;0.00;;;17.90;49.30;;;;;;5036265;28;20030;-93
2021/11/08 11:24:05;;;;;;;0.00;0.00;;;17.60;50.00;;;;;;5038786;28;20381;-93
2021/11/08 11:26:48;;;;;;;0.00;0.00;;;17.20;50.10;;;;;;5036113;28;20030;-93
2021/11/08 11:29:28;;;;;;;0.00;0.00;;;16.80;50.50;;;;;;5036469;28;20085;-93
2021/11/08 11:31:54;;;;;;;0.00;0.00;;;16.20;51.30;;;;;;5038501;28;20033;-93
2021/11/08 11:34:20;;;;;;;0.00;0.00;;;15.90;51.80;;;;;;5036681;28;20528;-94
2021/11/08 11:36:46;;;;;;;0.00;0.00;;;15.60;52.70;;;;;;5036758;28;20033;-94
2021/11/08 11:39:16;;;;;;;0.00;0.00;;;15.40;53.60;;;;;;5037275;28;20064;-93
2021/11/08 11:41:44;;;;;;;0.00;0.00;;;15.30;54.00;;;;;;5040046;28;20090;-93
2021/11/08 11:44:18;;;;;;;0.00;0.00;;;15.20;54.40;;;;;;5043911;28;20060;-93
2021/11/08 11:46:50;;;;;;;0.00;0.00;;;15.30;54.50;;;;;;5042690;28;20026;-92
2021/11/08 11:49:16;;;;;;;0.00;0.00;;;15.20;54.80;;;;;;5038512;28;20497;-92
2021/11/08 11:51:47;;;;;;;0.00;0.00;;;15.20;54.80;;;;;;5036490;28;20034;-92
2021/11/08 11:54:14;;;;;;;0.00;0.00;;;15.30;55.00;;;;;;5036351;28;20440;-92
2021/11/08 11:56:42;;;;;;;0.00;0.00;;;15.40;54.90;;;;;;5034788;28;20369;-92
2021/11/08 11:59:09;;;;;;;0.00;0.00;;;15.50;54.60;;;;;;5035881;28;20031;-93
2021/11/08 12:01:36;;;;;;;0.30;0.00;;;15.40;54.30;;;;;;5035782;28;20080;-92
2021/11/08 12:04:02;;;;;;;0.00;0.00;;;15.20;54.40;;;;;;5035766;28;20030;-93
2021/11/08 12:06:32;;;;;;;0.00;0.00;;;15.10;54.70;;;;;;5036374;28;20347;-95
2021/11/08 12:08:59;;;;;;;0.00;0.00;;;14.90;54.80;;;;;;5035531;28;20080;-94
2021/11/08 12:11:36;;;;;;;0.00;0.00;;;14.80;55.00;;;;;;5036387;28;20370;-95
2021/11/08 12:14:05;;;;;;;0.00;0.00;;;14.50;55.40;;;;;;5035644;28;20037;-95
2021/11/08 12:16:33;;;;;;;0.00;0.00;;;14.30;55.70;;;;;;5035739;28;20028;-94
2021/11/08 12:19:01;;;;;;;0.00;0.00;;;14.10;56.10;;;;;;5037570;28;20022;-92
2021/11/08 12:21:32;;;;;;;0.00;0.00;;;13.90;56.60;;;;;;5041077;28;20025;-93
2021/11/08 12:24:00;;;;;;;0.00;0.00;;;13.80;56.90;;;;;;5035819;28;20033;-94
2021/11/08 12:26:29;;;;;;;0.00;0.00;;;13.70;57.30;;;;;;5034422;28;20026;-92
2021/11/08 12:29:17;;;;;;;0.00;0.00;;;13.60;57.50;;;;;;5035302;28;20029;-93
2021/11/08 12:31:43;;;;;;;0.00;0.00;;;13.60;57.80;;;;;;5035178;28;20033;-93
2021/11/08 12:34:16;;;;;;;0.00;0.00;;;13.50;57.80;;;;;;5036256;28;20029;-92
2021/11/08 12:36:53;;;;;;;0.00;0.00;;;13.50;57.90;;;;;;5035573;28;20028;-93
2021/11/08 12:39:19;;;;;;;0.00;0.00;;;13.40;58.30;;;;;;5034699;28;20045;-92
2021/11/08 12:41:48;;;;;;;0.00;0.00;;;13.40;58.40;;;;;;5035410;28;20033;-92
2021/11/08 12:44:21;;;;;;;0.00;0.00;;;13.30;58.40;;;;;;5035266;28;20057;-93
2021/11/08 12:46:51;;;;;;;0.00;0.00;;;13.30;58.60;;;;;;5033724;28;20025;-92
2021/11/08 12:49:22;;;;;;;0.00;0.00;;;13.20;58.70;;;;;;5050389;28;20049;-92
2021/11/08 12:51:56;;;;;;;0.00;0.00;;;13.20;58.80;;;;;;5033236;28;20034;-92
2021/11/08 12:54:23;;;;;;;0.00;0.00;;;13.20;59.00;;;;;;5034870;28;20088;-94
2021/11/08 12:56:49;;;;;;;0.00;0.00;;;13.10;59.40;;;;;;5034310;28;20436;-92
2021/11/08 12:59:24;;;;;;;0.00;0.00;;;13.10;59.50;;;;;;5038552;28;20469;-92
2021/11/08 13:01:52;;;;;;;0.00;0.00;;;13.00;60.10;;;;;;5037802;28;20025;-94
2021/11/08 13:04:19;;;;;;;0.00;0.00;;;13.00;59.70;;;;;;5034842;28;20037;-92
2021/11/08 13:06:46;;;;;;;0.00;0.00;;;13.00;59.80;;;;;;5034155;28;20362;-93
2021/11/08 13:09:22;;;;;;;0.00;0.00;;;12.90;60.00;;;;;;5034542;28;20179;-93
2021/11/08 13:11:58;;;;;;;0.00;0.00;;;12.90;60.10;;;;;;5033820;28;20086;-92
2021/11/08 13:14:34;;;;;;;0.00;0.00;;;12.80;60.20;;;;;;5034312;28;20038;-93
2021/11/08 13:17:11;;;;;;;0.00;0.00;;;12.80;60.30;;;;;;5034788;28;20108;-95
2021/11/08 13:19:44;;;;;;;0.00;0.00;;;12.80;60.30;;;;;;5033956;28;20492;-92
2021/11/08 13:22:16;;;;;;;0.00;0.00;;;12.80;61.00;;;;;;5034225;28;20040;-93
2021/11/08 13:24:41;;;;;;;0.00;0.00;;;12.80;60.40;;;;;;5037238;28;20021;-93
2021/11/08 13:27:08;;;;;;;0.00;0.00;;;12.80;60.50;;;;;;5034709;28;20052;-94
2021/11/08 13:29:36;;;;;;;0.00;0.00;;;12.80;60.50;;;;;;5034525;28;20033;-93
2021/11/08 13:32:12;;;;;;;0.00;0.00;;;12.80;61.20;;;;;;5034407;28;20026;-94
2021/11/08 13:34:39;;;;;;;0.00;0.00;;;12.80;60.70;;;;;;5034153;28;20033;-92
2021/11/08 13:37:05;;;;;;;0.00;0.00;;;12.80;60.80;;;;;;5034347;28;20025;-93
2021/11/08 13:39:31;;;;;;;0.00;0.00;;;12.80;60.90;;;;;;5034488;28;20053;-94
2021/11/08 13:41:57;;;;;;;0.00;0.00;;;12.70;60.90;;;;;;5032963;28;20466;-93
2021/11/08 13:44:22;;;;;;;0.00;0.00;;;12.70;61.00;;;;;;5034254;28;20061;-94
2021/11/08 13:46:50;;;;;;;0.00;0.00;;;12.70;61.10;;;;;;5034411;28;20036;-93
2021/11/08 13:49:22;;;;;;;0.00;0.00;;;12.70;61.10;;;;;;5034344;28;20032;-93
2021/11/08 13:51:55;;;;;;;0.00;0.00;;;12.70;61.20;;;;;;5033396;28;20026;-93
2021/11/08 13:54:30;;;;;;;0.00;0.00;;;12.70;61.20;;;;;;5034073;28;20041;-95
2021/11/08 13:57:07;;;;;;;0.00;0.00;;;12.70;61.30;;;;;;5032964;28;20026;-95
2021/11/08 13:59:40;;;;;;;0.00;0.00;;;12.70;61.30;;;;;;5033330;28;20071;-93
2021/11/08 14:02:18;;;;;;;0.00;0.00;;;12.70;61.30;;;;;;5033484;28;20043;-94
2021/11/08 14:04:49;;;;;;;0.00;0.00;;;12.70;61.40;;;;;;5033115;28;20034;-94
2021/11/08 14:07:17;;;;;;;0.00;0.00;;;12.70;61.40;;;;;;5032511;28;20026;-93
2021/11/08 14:09:43;;;;;;;0.00;0.00;;;12.70;61.30;;;;;;5022568;28;20428;-94
2021/11/08 14:12:15;;;;;;;0.00;0.00;;;12.60;61.40;;;;;;5032998;28;20018;-92
2021/11/08 14:14:41;;;;;;;0.00;0.00;;;12.60;61.40;;;;;;5048510;28;20025;-93
2021/11/08 14:17:18;;;;;;;0.00;0.00;;;12.50;61.40;;;;;;5031056;28;20424;-94
2021/11/08 14:19:46;;;;;;;0.00;0.00;;;12.40;61.30;;;;;;5047576;28;20385;-94
2021/11/08 14:22:12;;;;;;;0.00;0.00;;;12.40;61.10;;;;;;5028210;28;20030;-93
2021/11/08 14:24:41;;;;;;;0.00;0.00;;;12.30;61.10;;;;;;5057879;28;20033;-93
2021/11/08 14:27:15;;;;;;;0.00;0.00;;;12.30;61.20;;;;;;5041365;28;20025;-93
2021/11/08 14:29:43;;;;;;;0.00;0.00;;;12.30;61.00;;;;;;5057399;28;20032;-93
2021/11/08 14:32:12;;;;;;;0.00;0.00;;;12.30;60.90;;;;;;5035353;28;20037;-91
2021/11/08 14:34:45;;;;;;;0.00;0.00;;;12.30;60.80;;;;;;5031138;28;20727;-93
2021/11/08 14:37:19;;;;;;;0.00;0.00;;;12.30;60.70;;;;;;5031645;28;20025;-93
2021/11/08 14:39:47;;;;;;;0.00;0.00;;;12.30;60.60;;;;;;5029818;28;20045;-93
2021/11/08 14:42:16;;;;;;;0.00;0.00;;;12.30;61.20;;;;;;5029244;28;20120;-94
2021/11/08 14:44:50;;;;;;;0.00;0.00;;;12.30;60.40;;;;;;5029507;28;20266;-93
2021/11/08 14:47:22;;;;;;;0.00;0.00;;;12.30;60.30;;;;;;5030124;28;20017;-93